• Join FlightAware (Why Join?)
  • Login
  • US Flag 
03:22AM EDT


 

Airport Tracker/Info


-or-


 

Live Flight TrackerFlight Track Log ✈ TCF5665 ✈ 12-Jul-2013 ✈ KDFW - KMKE

Flight Track Log - Related Links

Times and Time Zones

All times are in EDT time to prevent confusion due to time zone crossing. See the TCF5665 flight status page for this flight to view local times or setup timezone preferences in your user account.

Time Position Orientation Groundspeed Altitude Reporting Facility
EDT Latitude Longitude Course Direction KTS MPH feet Rate Location/Type
07:35AM 32.8833 -97.0167 180° South 130 150 1,100  Level Dallas / Fort Worth TRACON
07:35AM 32.8667 -97.0167 180° South 167 192 2,400 1,620 Climbing Dallas / Fort Worth TRACON
07:36AM 32.8000 -97.0000 168° South 263 303 4,100 2,100 Climbing Dallas / Fort Worth TRACON
07:37AM 32.7667 -96.9167 115° Southeast 280 322 6,900 2,640 Climbing Dallas / Fort Worth TRACON
07:38AM 32.8167 -96.8667 40° Northeast 294 338 9,300 1,980 Climbing Dallas / Fort Worth TRACON
07:39AM 32.9000 -96.8667 360° North 325 374 10,700 1,980 Climbing Dallas / Fort Worth TRACON
07:41AM 33.0681 -96.8556 North 364 419 14,500 2,280 Climbing Fort Worth Center
07:42AM 33.1703 -96.8475 North 364 419 16,900 2,040 Climbing Fort Worth Center
07:43AM 33.2642 -96.8394 North 364 419 18,600 1,860 Climbing Fort Worth Center
07:44AM 33.3831 -96.8314 North 375 432 20,700 1,860 Climbing Fort Worth Center
07:45AM 33.4789 -96.8033 14° North 387 445 22,400 1,620 Climbing Fort Worth Center
07:46AM 33.5808 -96.7378 28° Northeast 401 461 24,000 1,500 Climbing Fort Worth Center
07:47AM 33.6850 -96.6722 28° Northeast 406 467 25,400 1,500 Climbing Fort Worth Center
07:48AM 33.7889 -96.6061 28° Northeast 411 473 27,000 1,440 Climbing Fort Worth Center
07:49AM 33.8928 -96.5378 29° Northeast 411 473 28,300 1,200 Climbing Fort Worth Center
07:50AM 33.9967 -96.4692 29° Northeast 411 473 29,400 1,200 Climbing Fort Worth Center
07:51AM 34.1067 -96.3950 29° Northeast 416 479 30,800 1,320 Climbing Fort Worth Center
07:52AM 34.2039 -96.3136 35° Northeast 410 472 32,100 1,260 Climbing Fort Worth Center
07:53AM 34.3014 -96.2319 35° Northeast 410 472 33,400 1,380 Climbing Fort Worth Center
07:54AM 34.3986 -96.1525 34° Northeast 417 480 34,900 1,200 Climbing Fort Worth Center
07:55AM 34.4939 -96.0756 34° Northeast 417 480 35,900 1,020 Climbing Fort Worth Center
07:56AM 34.5847 -95.9986 35° Northeast 417 480 37,000 540 Climbing Fort Worth Center
07:57AM 34.6800 -95.9211 34° Northeast 411 473 37,000  Level Fort Worth Center
07:58AM 34.7769 -95.8386 35° Northeast 418 481 37,000  Level Fort Worth Center
07:59AM 34.8781 -95.7531 35° Northeast 429 494 37,000  Level Fort Worth Center
08:00AM 34.9667 -95.6731 36° Northeast 434 499 37,000  Level Fort Worth Center
08:01AM 35.0614 -95.5822 38° Northeast 434 499 37,000  Level Fort Worth Center
08:02AM 35.1581 -95.4911 38° Northeast 434 499 37,000  Level Fort Worth Center
08:03AM 35.2525 -95.4003 38° Northeast 434 499 37,000  Level Fort Worth Center
08:04AM 35.3600 -95.2986 38° Northeast 423 487 37,000  Level Memphis Center
08:05AM 35.4533 -95.2097 38° Northeast 423 487 37,000  Level Memphis Center
08:06AM 35.5506 -95.1211 37° Northeast 423 487 37,000  Level Memphis Center
08:07AM 35.6444 -95.0278 39° Northeast 428 493 37,000 -60 Level Kansas City Center
08:08AM 35.7381 -94.9358 39° Northeast 431 496 36,900  Descending Kansas City Center
08:09AM 35.8325 -94.8456 38° Northeast 430 495 37,000  Climbing Kansas City Center
08:10AM 35.9225 -94.7581 38° Northeast 428 493 37,000  Level Memphis Center
08:11AM 36.0175 -94.6683 37° Northeast 428 493 37,000  Level Memphis Center
08:12AM 36.1103 -94.5781 38° Northeast 428 493 37,000  Level Memphis Center
08:13AM 36.2028 -94.4833 40° Northeast 426 490 37,000  Level Kansas City Center
08:14AM 36.2969 -94.3933 38° Northeast 426 490 37,000  Level Kansas City Center
08:15AM 36.3903 -94.3017 38° Northeast 427 491 37,000  Level Kansas City Center
08:16AM 36.5006 -94.1933 38° Northeast 425 489 37,000  Level Kansas City Center
08:17AM 36.5928 -94.1022 38° Northeast 424 488 37,000  Level Kansas City Center
08:18AM 36.6847 -94.0108 39° Northeast 424 488 37,000  Level Kansas City Center
08:19AM 36.7781 -93.9189 38° Northeast 424 488 37,000  Level Kansas City Center
08:20AM 36.8706 -93.8275 38° Northeast 425 489 37,000  Level Kansas City Center
08:21AM 36.9514 -93.7403 41° Northeast 422 486 37,000  Level Kansas City Center
08:22AM 37.0628 -93.6300 38° Northeast 423 487 37,000  Level Kansas City Center
08:23AM 37.1539 -93.5381 39° Northeast 421 484 37,000  Level Kansas City Center
08:24AM 37.2444 -93.4469 39° Northeast 417 480 37,000  Level Kansas City Center
08:25AM 37.3347 -93.3569 38° Northeast 414 476 37,000  Level Kansas City Center
08:26AM 37.4239 -93.2694 38° Northeast 409 471 37,000  Level Kansas City Center
08:27AM 37.5156 -93.1850 36° Northeast 406 467 37,000  Level Kansas City Center
08:28AM 37.6075 -93.1017 36° Northeast 405 466 37,000  Level Kansas City Center
08:30AM 37.6997 -93.0164 36° Northeast 407 468 37,000  Level Kansas City Center
08:31AM 37.7900 -92.9308 37° Northeast 405 466 37,000  Level Kansas City Center
08:32AM 37.8831 -92.8439 36° Northeast 410 472 37,000  Level Kansas City Center
08:33AM 37.9767 -92.7578 36° Northeast 413 475 37,000  Level Kansas City Center
08:34AM 38.0822 -92.6569 37° Northeast 411 473 37,000  Level Kansas City Center
08:35AM 38.1753 -92.5719 36° Northeast 412 474 37,000  Level Kansas City Center
08:36AM 38.2561 -92.4944 37° Northeast 412 474 37,000  Level Kansas City Center
08:37AM 38.3664 -92.3883 37° Northeast 411 473 37,000  Level Kansas City Center
08:38AM 38.4564 -92.3008 37° Northeast 405 466 37,000  Level Kansas City Center
08:39AM 38.5478 -92.2147 36° Northeast 405 466 37,000  Level Kansas City Center
08:40AM 38.6381 -92.1275 37° Northeast 406 467 37,000  Level Kansas City Center
08:41AM 38.7294 -92.0403 37° Northeast 407 468 37,000  Level Kansas City Center
08:42AM 38.8200 -91.9522 37° Northeast 406 467 37,000  Level Kansas City Center
08:43AM 38.9100 -91.8653 37° Northeast 405 466 37,000  Level Kansas City Center
08:44AM 39.0003 -91.7781 37° Northeast 405 466 37,000  Level Kansas City Center
08:45AM 39.0950 -91.6853 37° Northeast 400 460 37,000  Level Kansas City Center
08:46AM 39.1836 -91.5989 37° Northeast 400 460 37,000  Level Kansas City Center
08:47AM 39.2728 -91.5119 37° Northeast 399 459 37,000 -60 Level Kansas City Center
08:48AM 39.3625 -91.4250 37° Northeast 402 463 36,900  Descending Kansas City Center
08:49AM 39.4497 -91.3375 38° Northeast 399 459 37,000  Climbing Kansas City Center
08:50AM 39.5208 -91.2231 51° Northeast 413 475 37,000  Level Kansas City Center
08:51AM 39.5817 -91.0947 58° Northeast 418 481 37,000  Level Kansas City Center
08:52AM 39.6539 -90.9425 58° Northeast 414 476 37,000  Level Kansas City Center
08:53AM 39.7292 -90.8358 47° Northeast 405 466 37,000  Level Kansas City Center
08:54AM 39.7972 -90.7472 45° Northeast 398 458 37,000  Level Kansas City Center
08:55AM 39.8897 -90.6222 46° Northeast 399 459 37,000  Level Kansas City Center
08:56AM 39.9661 -90.5183 46° Northeast 398 458 37,000  Level Kansas City Center
08:57AM 40.0439 -90.4153 45° Northeast 398 458 37,000  Level Kansas City Center
08:58AM 40.1208 -90.3114 46° Northeast 399 459 37,000  Level Kansas City Center
08:59AM 40.1981 -90.2069 46° Northeast 400 460 37,000  Level Kansas City Center
09:00AM 40.2736 -90.1033 46° Northeast 397 457 37,000  Level Kansas City Center
09:01AM 40.3494 -89.9986 46° Northeast 396 456 37,000  Level Kansas City Center
09:02AM 40.4389 -89.8739 47° Northeast 394 453 37,000  Level Chicago Center
09:03AM 40.5103 -89.7744 47° Northeast 397 457 37,000  Level Chicago Center
09:04AM 40.5853 -89.6711 46° Northeast 395 455 37,000  Level Chicago Center
09:05AM 40.6781 -89.5469 45° Northeast 394 453 37,000 -780 Level Chicago Center
09:07AM 40.7544 -89.4400 47° Northeast 392 451 35,500 -1,680 Descending Chicago Center
09:08AM 40.8286 -89.3372 46° Northeast 390 449 33,600 -1,920 Descending Chicago Center
09:09AM 40.9039 -89.2322 46° Northeast 392 451 31,600 -1,260 Descending Chicago Center
09:10AM 40.9806 -89.1253 46° Northeast 398 458 31,000 -300 Descending Chicago Center
09:11AM 41.0719 -88.9975 46° Northeast 406 467 31,000  Level Chicago Center
09:12AM 41.1483 -88.8883 47° Northeast 405 466 31,000 -1,020 Level Chicago Center
09:13AM 41.2225 -88.7819 47° Northeast 394 453 29,000 -2,160 Descending Chicago Center
09:14AM 41.2992 -88.6714 47° Northeast 402 463 26,600 -2,340 Descending Chicago Center
09:15AM 41.3817 -88.5556 46° Northeast 427 491 24,200 -1,260 Descending Chicago Center
09:16AM 41.4628 -88.4383 47° Northeast 428 493 24,000 -120 Descending Chicago Center
09:17AM 41.5519 -88.3367 40° Northeast 423 487 24,000  Level Chicago Center
09:18AM 41.6908 -88.3167 North 416 479 24,000  Level Chicago Center
09:19AM 41.8075 -88.3150 North 419 482 24,000 -360 Level Chicago Center
09:20AM 41.9239 -88.3125 North 421 484 23,300 -1,260 Descending Chicago Center
09:21AM 42.0383 -88.3103 North 415 478 21,400 -1,800 Descending Chicago Center
09:22AM 42.1486 -88.3106 360° North 400 460 19,600 -1,980 Descending Chicago Center
09:23AM 42.2806 -88.3092 360° North 398 458 17,400 -2,220 Descending Chicago Center
09:24AM 42.3908 -88.3078 North 382 440 15,100 -2,100 Descending Chicago Center
09:25AM 42.4942 -88.3056 North 373 429 13,100 -1,920 Descending Chicago Center
09:26AM 42.5936 -88.3047 360° North 359 413 11,200 -1,800 Descending Chicago Center
09:27AM 42.6772 -88.3047 360° North 304 350 9,500 -1,620 Descending Chicago Center
09:28AM 42.7508 -88.2789 14° North 286 329 7,900 -1,740 Descending Chicago Center
09:29AM 42.8194 -88.2300 28° Northeast 279 321 6,000 -1,920 Descending Chicago Center
09:30AM 42.8814 -88.1533 42° Northeast 266 306 4,000 -1,500 Descending Chicago Center
09:31AM 42.9017 -88.0711 71° East 244 281 2,900 -1,020 Descending Chicago Center
09:32AM 42.9172 -88.0056 72° East 201 231 2,000 -780 Descending Chicago Center
09:33AM 42.9292 -87.9558 72° East 158 182 1,300 -660 Descending Chicago Center
09:34AM 42.9394 -87.9153 71° East 133 153 700 -600 Descending Chicago Center
09:36AM 42.9469 -87.8971 56° Northeast  Level Estimated